Time;durP1;ratioP1;P1;durP2;ratioP2;P2;SDS_P1;SDS_P2;PMS_P1;PMS_P2;Temp;Humidity;BMP_temperature;BMP_pressure;BME280_temperature;BME280_humidity;BME280_pressure;Samples;Min_cycle;Max_cycle;Signal;HPM_P1;HPM_P2
2023/04/28 00:00:01;;;;;;;10.80;6.90;;;;;;;7.32;97.89;63488.88;4935200;29;20483;-92
2023/04/28 00:02:26;;;;;;;15.25;7.57;;;;;;;7.30;96.47;63486.63;4933423;29;20031;-93
2023/04/28 00:04:51;;;;;;;13.02;6.90;;;;;;;7.29;95.15;63485.38;4935307;29;20034;-95
2023/04/28 00:07:17;;;;;;;16.17;8.10;;;;;;;7.27;100.00;63484.13;4934979;29;20035;-93
2023/04/28 00:09:42;;;;;;;14.63;7.90;;;;;;;7.25;99.74;63482.06;4935086;29;20039;-93
2023/04/28 00:12:07;;;;;;;15.33;8.07;;;;;;;7.23;100.00;63479.06;4935205;29;20055;-93
2023/04/28 00:14:32;;;;;;;14.10;7.60;;;;;;;7.20;100.00;63476.50;4939335;29;20036;-92
2023/04/28 00:16:58;;;;;;;11.80;7.47;;;;;;;7.18;100.00;63473.91;4953615;28;20031;-93
2023/04/28 00:19:23;;;;;;;15.20;8.20;;;;;;;7.16;100.00;63471.19;4951310;28;20016;-93
2023/04/28 00:21:48;;;;;;;14.32;8.60;;;;;;;7.13;100.00;63467.97;4964162;28;20011;-92
2023/04/28 00:24:14;;;;;;;14.90;7.93;;;;;;;7.10;100.00;63464.66;4978443;28;20097;-91
2023/04/28 00:26:39;;;;;;;14.93;7.93;;;;;;;7.06;100.00;63460.84;4961573;28;20019;-91
2023/04/28 00:29:05;;;;;;;12.47;8.03;;;;;;;7.03;100.00;63457.69;4946899;29;20483;-91
2023/04/28 00:31:30;;;;;;;17.13;8.30;;;;;;;6.99;100.00;63453.63;4958943;29;20106;-92
2023/04/28 00:33:55;;;;;;;15.30;8.52;;;;;;;6.96;100.00;63450.88;4941406;29;20029;-92
2023/04/28 00:36:22;;;;;;;16.30;8.43;;;;;;;6.93;100.00;63447.97;4961028;29;20059;-92
2023/04/28 00:38:47;;;;;;;15.50;8.30;;;;;;;6.90;100.00;63444.41;4960599;29;20026;-91
2023/04/28 00:41:14;;;;;;;17.47;8.53;;;;;;;6.87;100.00;63441.84;4942618;29;20821;-92
2023/04/28 00:43:49;;;;;;;16.53;8.83;;;;;;;6.84;100.00;63439.09;4955346;29;20027;-92
2023/04/28 00:46:29;;;;;;;16.57;8.90;;;;;;;6.82;100.00;63436.38;4927416;29;20296;-91
2023/04/28 00:48:56;;;;;;;17.85;9.63;;;;;;;6.79;100.00;63433.88;4922684;29;20083;-92
2023/04/28 00:51:21;;;;;;;21.52;9.50;;;;;;;6.77;100.00;63431.47;4939711;29;20150;-91
2023/04/28 00:53:47;;;;;;;15.80;9.93;;;;;;;6.75;100.00;63429.06;4939717;29;20101;-93
2023/04/28 00:56:14;;;;;;;18.05;9.45;;;;;;;6.72;100.00;63426.25;4949616;29;20019;-92
2023/04/28 00:58:40;;;;;;;19.38;9.10;;;;;;;6.70;100.00;63423.59;4938015;29;20510;-92
2023/04/28 01:01:07;;;;;;;17.88;10.20;;;;;;;6.67;100.00;63421.28;4944633;28;20058;-92
2023/04/28 01:03:36;;;;;;;17.63;9.67;;;;;;;6.64;100.00;63418.47;4957001;29;20031;-93
2023/04/28 01:06:03;;;;;;;19.13;10.20;;;;;;;6.62;100.00;63416.00;4957597;28;20281;-92
2023/04/28 01:08:33;;;;;;;20.08;10.93;;;;;;;6.61;100.00;63413.91;4956804;28;20031;-92
2023/04/28 01:10:59;;;;;;;15.07;9.80;;;;;;;6.58;100.00;63411.34;4956924;28;20078;-93
2023/04/28 01:13:24;;;;;;;17.80;11.00;;;;;;;6.56;100.00;63408.69;4941182;29;20531;-94
2023/04/28 01:15:50;;;;;;;16.93;9.97;;;;;;;6.54;100.00;63406.69;4938427;29;20744;-93
2023/04/28 01:18:15;;;;;;;19.15;9.68;;;;;;;6.51;100.00;63404.13;4952690;28;20073;-94
2023/04/28 01:20:42;;;;;;;16.77;10.40;;;;;;;6.49;100.00;63402.16;4949553;28;20048;-93
2023/04/28 01:23:17;;;;;;;21.42;10.35;;;;;;;6.47;100.00;63399.91;4937687;29;20036;-93
2023/04/28 01:25:43;;;;;;;20.00;9.60;;;;;;;6.44;100.00;63397.66;4937930;29;20054;-94
2023/04/28 01:28:09;;;;;;;21.55;10.52;;;;;;;6.43;100.00;63395.94;4937201;29;20086;-92
2023/04/28 01:30:35;;;;;;;22.07;10.33;;;;;;;6.40;100.00;63392.59;4942941;29;20027;-93
2023/04/28 01:33:01;;;;;;;18.77;10.20;;;;;;;6.37;100.00;63390.22;4954491;28;20297;-93
2023/04/28 01:35:26;;;;;;;22.45;10.02;;;;;;;6.34;100.00;63387.22;4957576;28;20028;-94
2023/04/28 01:37:52;;;;;;;21.70;10.40;;;;;;;6.32;100.00;63384.97;4957844;29;20038;-94
2023/04/28 01:40:17;;;;;;;19.43;10.80;;;;;;;6.30;100.00;63383.00;4971505;29;20019;-94
2023/04/28 01:42:42;;;;;;;20.00;10.97;;;;;;;6.27;100.00;63380.19;4966250;29;20102;-93
2023/04/28 01:45:08;;;;;;;18.80;10.57;;;;;;;6.25;100.00;63378.44;4952613;28;20028;-93
2023/04/28 01:47:34;;;;;;;20.65;10.80;;;;;;;6.24;100.00;63377.03;4955958;28;20051;-93
2023/04/28 01:50:00;;;;;;;18.73;10.80;;;;;;;6.21;100.00;63375.44;4958494;29;20480;-93
2023/04/28 01:52:26;;;;;;;23.13;11.02;;;;;;;6.20;100.00;63373.47;4957448;28;20078;-93
2023/04/28 01:54:52;;;;;;;21.67;11.00;;;;;;;6.18;100.00;63371.78;4938204;29;20051;-95
2023/04/28 01:57:17;;;;;;;24.03;10.93;;;;;;;6.16;100.00;63369.91;4938558;29;20710;-93
2023/04/28 01:59:44;;;;;;;19.63;11.50;;;;;;;6.15;100.00;63368.66;4940091;29;20031;-94
2023/04/28 02:02:09;;;;;;;22.08;11.32;;;;;;;6.14;100.00;63367.59;4939576;29;20032;-94
2023/04/28 02:04:40;;;;;;;21.87;11.37;;;;;;;6.13;100.00;63366.66;4938689;29;20047;-94
2023/04/28 02:07:05;;;;;;;22.85;10.90;;;;;;;6.13;100.00;63365.75;4937915;29;20032;-94
2023/04/28 02:09:32;;;;;;;18.05;10.80;;;;;;;6.12;100.00;63365.00;4937133;29;20095;-93
2023/04/28 02:11:58;;;;;;;20.58;11.63;;;;;;;6.10;100.00;63362.94;4937244;29;20452;-93
2023/04/28 02:14:24;;;;;;;19.00;10.45;;;;;;;6.10;100.00;63362.78;4944066;29;20031;-94
2023/04/28 02:16:49;;;;;;;19.43;10.37;;;;;;;6.10;100.00;63362.38;4956089;28;20033;-95
2023/04/28 02:19:15;;;;;;;18.70;10.80;;;;;;;6.09;100.00;63361.78;4927671;29;20405;-94
2023/04/28 02:21:41;;;;;;;22.35;10.63;;;;;;;6.09;100.00;63361.63;4919174;29;20050;-94
2023/04/28 02:24:07;;;;;;;22.23;10.70;;;;;;;6.08;100.00;63360.69;4935902;29;20137;-94
2023/04/28 02:26:33;;;;;;;20.87;10.77;;;;;;;6.08;100.00;63360.44;4941522;28;20881;-94
2023/04/28 02:28:59;;;;;;;21.15;11.02;;;;;;;6.08;100.00;63360.63;4943354;29;20423;-94
2023/04/28 02:31:30;;;;;;;21.87;11.37;;;;;;;6.08;100.00;63360.03;4963487;28;20028;-96
2023/04/28 02:33:55;;;;;;;23.52;11.27;;;;;;;6.08;100.00;63360.44;4958045;29;20046;-96
2023/04/28 02:36:22;;;;;;;23.00;11.40;;;;;;;6.07;100.00;63359.69;4961090;29;20023;-96
2023/04/28 02:38:47;;;;;;;21.40;10.67;;;;;;;6.07;100.00;63359.28;4942445;29;20306;-96
2023/04/28 02:41:14;;;;;;;19.92;11.07;;;;;;;6.07;100.00;63359.53;4978897;28;20019;-96
2023/04/28 02:43:40;;;;;;;19.57;10.60;;;;;;;6.07;100.00;63358.56;4976501;28;20030;-96
2023/04/28 02:46:05;;;;;;;19.20;10.82;;;;;;;6.07;100.00;63358.47;4953796;29;20062;-96
2023/04/28 02:48:34;;;;;;;22.43;12.23;;;;;;;6.07;100.00;63358.63;4966840;28;20081;-95
2023/04/28 02:50:59;;;;;;;20.52;11.10;;;;;;;6.07;100.00;63358.81;4942373;29;20441;-96
2023/04/28 02:53:25;;;;;;;18.63;11.20;;;;;;;6.07;100.00;63358.22;4940627;29;20070;-96
2023/04/28 02:55:51;;;;;;;19.60;11.02;;;;;;;6.06;100.00;63357.31;4952298;28;20074;-96
2023/04/28 02:58:18;;;;;;;24.83;11.65;;;;;;;6.05;100.00;63356.31;4951019;29;20097;-96
2023/04/28 03:00:45;;;;;;;21.58;11.90;;;;;;;6.05;100.00;63355.97;4955761;29;20110;-95
2023/04/28 03:03:10;;;;;;;25.17;11.67;;;;;;;6.05;100.00;63355.56;4952958;28;20035;-96
2023/04/28 03:05:37;;;;;;;19.93;11.83;;;;;;;6.05;100.00;63355.41;4967394;28;20290;-95
2023/04/28 03:08:02;;;;;;;22.80;10.95;;;;;;;6.05;100.00;63355.81;4950739;29;20055;-95
2023/04/28 03:10:28;;;;;;;23.37;12.03;;;;;;;6.05;100.00;63356.25;4935338;28;20070;-96
2023/04/28 03:12:55;;;;;;;20.73;11.43;;;;;;;6.05;100.00;63356.09;4953390;29;20038;-96
2023/04/28 03:15:39;;;;;;;24.77;12.55;;;;;;;6.05;100.00;63355.75;4958874;28;20027;-96
2023/04/28 03:18:04;;;;;;;22.50;11.35;;;;;;;6.06;100.00;63356.41;4958820;29;20019;-96
2023/04/28 03:20:30;;;;;;;24.37;12.23;;;;;;;6.07;100.00;63357.47;4943883;29;20022;-95
2023/04/28 03:22:55;;;;;;;25.50;12.43;;;;;;;6.09;100.00;63359.06;4959871;28;20043;-95
2023/04/28 03:25:20;;;;;;;22.53;12.37;;;;;;;6.11;100.00;63361.13;4965507;28;20011;-95
2023/04/28 03:27:46;;;;;;;29.05;12.68;;;;;;;6.12;100.00;63363.03;4962306;28;20012;-96
2023/04/28 03:30:11;;;;;;;27.67;12.77;;;;;;;6.14;100.00;63364.78;4958894;28;20028;-96
2023/04/28 03:32:36;;;;;;;26.23;13.17;;;;;;;6.16;100.00;63366.44;4957538;28;20063;-96
2023/04/28 03:35:02;;;;;;;25.90;12.83;;;;;;;6.18;100.00;63368.81;4940713;29;20034;-96
2023/04/28 03:37:27;;;;;;;23.88;12.98;;;;;;;6.19;100.00;63369.75;4940213;29;20118;-94
2023/04/28 03:39:53;;;;;;;25.70;12.87;;;;;;;6.21;100.00;63372.47;4958024;29;20034;-96
2023/04/28 03:42:19;;;;;;;22.20;12.40;;;;;;;6.23;100.00;63374.63;4957548;29;20031;-93
2023/04/28 03:44:44;;;;;;;22.98;13.02;;;;;;;6.26;100.00;63377.53;4944850;28;20023;-95
2023/04/28 03:47:13;;;;;;;24.33;12.40;;;;;;;6.28;100.00;63379.94;4950276;28;20032;-95
2023/04/28 03:49:38;;;;;;;25.30;12.55;;;;;;;6.31;100.00;63382.00;4966653;29;20027;-95
2023/04/28 03:52:04;;;;;;;23.47;12.90;;;;;;;6.33;100.00;63384.31;4959157;29;20581;-96
2023/04/28 03:54:30;;;;;;;26.17;12.05;;;;;;;6.35;100.00;63386.47;4958594;28;20027;-95
2023/04/28 03:56:56;;;;;;;24.80;12.60;;;;;;;6.38;100.00;63388.88;4948999;28;20107;-94
2023/04/28 03:59:21;;;;;;;22.95;12.90;;;;;;;6.40;100.00;63390.78;4941533;29;20048;-95
2023/04/28 04:01:47;;;;;;;19.50;12.87;;;;;;;6.42;100.00;63393.53;4941576;29;20124;-95
2023/04/28 04:04:12;;;;;;;26.00;13.93;;;;;;;6.44;100.00;63396.16;4938477;29;20031;-95
2023/04/28 04:06:39;;;;;;;29.17;13.80;;;;;;;6.46;100.00;63397.59;4941613;28;20074;-94
2023/04/28 04:09:05;;;;;;;23.92;12.75;;;;;;;6.49;100.00;63400.16;4944679;29;20079;-95
2023/04/28 04:11:30;;;;;;;25.02;13.63;;;;;;;6.52;100.00;63402.72;4944138;28;20047;-94
2023/04/28 04:13:56;;;;;;;23.13;13.30;;;;;;;6.54;100.00;63405.13;4968148;29;20039;-94
2023/04/28 04:16:21;;;;;;;22.63;13.83;;;;;;;6.57;100.00;63407.78;4957317;28;20090;-95
2023/04/28 04:18:48;;;;;;;24.87;14.63;;;;;;;6.59;100.00;63410.03;4943678;29;20295;-95
2023/04/28 04:21:13;;;;;;;25.05;13.57;;;;;;;6.62;100.00;63412.84;4958782;28;20102;-95
2023/04/28 04:23:38;;;;;;;23.07;13.17;;;;;;;6.64;100.00;63415.06;4965649;28;20055;-94
2023/04/28 04:26:05;;;;;;;21.83;12.97;;;;;;;6.66;100.00;63417.47;4966180;28;20035;-95
2023/04/28 04:28:30;;;;;;;24.77;13.70;;;;;;;6.69;100.00;63420.38;4953231;28;20122;-95
2023/04/28 04:30:56;;;;;;;28.37;15.10;;;;;;;6.72;100.00;63423.13;4959857;28;20061;-92
2023/04/28 04:35:56;;;;;;;26.40;15.40;;;;;;;6.74;100.00;63426.19;5272711;23;20054;-84
2023/04/28 04:38:22;;;;;;;27.10;14.60;;;;;;;6.77;100.00;63428.84;4992882;28;20025;-84
2023/04/28 04:40:47;;;;;;;26.57;14.37;;;;;;;6.79;100.00;63431.25;4994295;28;20026;-84
2023/04/28 04:43:15;;;;;;;30.60;14.63;;;;;;;6.80;100.00;63431.75;4994387;28;20027;-84
2023/04/28 04:46:07;;;;;;;29.05;15.38;;;;;;;6.82;100.00;63433.66;4994662;28;20492;-84
2023/04/28 04:48:49;;;;;;;28.02;15.07;;;;;;;6.84;100.00;63435.38;4975625;28;20556;-85
2023/04/28 04:51:22;;;;;;;27.77;14.90;;;;;;;6.84;100.00;63436.13;4994502;28;20082;-85
2023/04/28 04:54:48;;;;;;;;;;;;;;;;;;;;;
2023/04/28 04:58:02;;;;;;;28.02;15.15;;;;;;;6.88;100.00;63440.53;4877916;29;20049;-88
2023/04/28 05:00:30;;;;;;;28.40;14.40;;;;;;;6.89;100.00;63442.00;4900055;29;20088;-87
2023/04/28 05:03:15;;;;;;;24.77;14.40;;;;;;;6.92;100.00;63444.84;4933697;29;20154;-85
2023/04/28 05:06:11;;;;;;;23.27;13.00;;;;;;;6.95;100.00;63448.00;4915994;29;20206;-87
2023/04/28 05:08:39;;;;;;;32.47;15.40;;;;;;;6.97;100.00;63449.81;4952488;28;20298;-85
2023/04/28 05:11:10;;;;;;;27.30;15.35;;;;;;;6.99;100.00;63451.63;4951843;29;20114;-87
2023/04/28 05:13:36;;;;;;;27.27;15.02;;;;;;;7.03;100.00;63455.78;4952687;29;20106;-87
2023/04/28 05:16:01;;;;;;;30.00;15.43;;;;;;;7.07;100.00;63460.25;4965427;28;20126;-86
2023/04/28 05:18:28;;;;;;;28.67;15.48;;;;;;;7.12;100.00;63464.81;4992814;28;20061;-87
2023/04/28 05:20:53;;;;;;;26.77;15.27;;;;;;;7.18;100.00;63470.03;4993680;28;20054;-87
2023/04/28 05:23:19;;;;;;;28.87;15.63;;;;;;;7.24;100.00;63475.63;4978811;28;20332;-86
2023/04/28 05:25:44;;;;;;;23.90;14.97;;;;;;;7.29;100.00;63481.00;4973927;28;20423;-84
2023/04/28 05:28:10;;;;;;;27.00;15.80;;;;;;;7.34;100.00;63485.66;4980459;28;20035;-88
2023/04/28 05:30:35;;;;;;;28.98;15.10;;;;;;;7.39;100.00;63490.53;4967585;28;20041;-87
2023/04/28 05:33:00;;;;;;;26.10;15.10;;;;;;;7.44;100.00;63495.44;4987614;28;20026;-87
2023/04/28 05:35:27;;;;;;;26.17;16.30;;;;;;;7.48;100.00;63499.66;4973450;28;20030;-87
2023/04/28 05:37:52;;;;;;;24.52;14.80;;;;;;;7.53;100.00;63504.06;4993043;28;20023;-87
2023/04/28 05:40:18;;;;;;;25.50;14.37;;;;;;;7.57;100.00;63508.47;4993404;28;20034;-87
2023/04/28 05:42:43;;;;;;;30.40;15.23;;;;;;;7.61;100.00;63512.03;4994045;28;20030;-90
2023/04/28 05:45:09;;;;;;;23.87;14.40;;;;;;;7.65;100.00;63516.09;4975627;28;20062;-88
2023/04/28 05:47:35;;;;;;;28.30;15.60;;;;;;;7.69;100.00;63520.31;4992379;28;20037;-87
2023/04/28 05:50:00;;;;;;;30.13;16.05;;;;;;;7.72;100.00;63523.97;4992606;28;20026;-87
2023/04/28 05:52:25;;;;;;;25.87;14.90;;;;;;;7.76;100.00;63527.28;4992221;28;20501;-87
2023/04/28 05:54:50;;;;;;;27.73;15.83;;;;;;;7.80;100.00;63531.69;4974716;28;20034;-86
2023/04/28 05:57:16;;;;;;;25.00;15.50;;;;;;;7.85;100.00;63535.94;4994070;28;20022;-86
2023/04/28 05:59:43;;;;;;;25.20;15.43;;;;;;;7.90;100.00;63541.22;4995899;28;20030;-87
2023/04/28 06:02:08;;;;;;;24.35;15.15;;;;;;;7.95;100.00;63546.38;4992397;28;20026;-86
2023/04/28 06:04:33;;;;;;;27.27;14.57;;;;;;;8.01;100.00;63551.78;4985914;28;20026;-86
2023/04/28 06:06:59;;;;;;;25.83;15.77;;;;;;;8.06;100.00;63557.00;4975644;28;20479;-86
2023/04/28 06:09:24;;;;;;;28.13;14.68;;;;;;;8.12;100.00;63563.16;4992389;28;20035;-86
2023/04/28 06:11:49;;;;;;;26.30;14.20;;;;;;;8.17;100.00;63568.47;4975766;28;20068;-86
2023/04/28 06:14:15;;;;;;;24.13;13.97;;;;;;;8.23;100.00;63574.59;4976006;28;20051;-86
2023/04/28 06:16:40;;;;;;;22.63;14.05;;;;;;;8.28;100.00;63580.25;4989101;28;20039;-84
2023/04/28 06:19:06;;;;;;;21.63;14.57;;;;;;;8.33;100.00;63585.13;4998549;28;20026;-84
2023/04/28 06:21:32;;;;;;;21.37;13.90;;;;;;;8.38;100.00;63590.69;4996577;28;20042;-85
2023/04/28 06:23:57;;;;;;;26.85;15.32;;;;;;;8.45;100.00;63597.16;5006286;28;20043;-86
2023/04/28 06:26:23;;;;;;;24.90;16.53;;;;;;;8.52;100.00;63604.66;5007033;28;20030;-85
2023/04/28 06:28:50;;;;;;;24.15;13.43;;;;;;;8.60;100.00;63612.53;5006790;28;20038;-86
2023/04/28 06:31:15;;;;;;;24.83;14.70;;;;;;;8.67;100.00;63619.34;4982291;28;20422;-86
2023/04/28 06:33:40;;;;;;;24.23;15.17;;;;;;;8.72;100.00;63624.75;4990632;28;20336;-86
2023/04/28 06:36:08;;;;;;;21.37;14.70;;;;;;;8.77;100.00;63629.75;4966842;28;20118;-86
2023/04/28 06:38:33;;;;;;;26.48;16.02;;;;;;;8.82;100.00;63634.97;4956677;28;20117;-86
2023/04/28 06:40:59;;;;;;;24.30;14.20;;;;;;;8.88;100.00;63640.47;4989407;28;20440;-85
2023/04/28 06:43:24;;;;;;;25.23;14.73;;;;;;;8.94;100.00;63646.69;4992769;28;20063;-86
2023/04/28 06:45:49;;;;;;;21.47;14.00;;;;;;;9.01;100.00;63653.72;4974561;28;20235;-86
2023/04/28 06:48:15;;;;;;;22.50;14.40;;;;;;;9.08;100.00;63661.13;4991050;28;20109;-87
2023/04/28 06:50:40;;;;;;;20.38;13.50;;;;;;;9.15;100.00;63668.69;4974136;28;20041;-86
2023/04/28 06:53:06;;;;;;;21.63;14.60;;;;;;;9.23;100.00;63676.16;4989859;28;20618;-85
2023/04/28 06:55:33;;;;;;;23.20;14.10;;;;;;;9.30;100.00;63684.13;4990460;28;20117;-86
2023/04/28 06:58:00;;;;;;;25.17;14.13;;;;;;;9.39;100.00;63692.84;4989384;28;20077;-86
2023/04/28 07:00:25;;;;;;;25.47;13.73;;;;;;;9.47;100.00;63700.50;4990414;28;20113;-85
2023/04/28 07:02:51;;;;;;;29.60;14.17;;;;;;;9.55;100.00;63708.81;4990063;28;20097;-86
2023/04/28 07:05:16;;;;;;;21.97;12.07;;;;;;;9.62;100.00;63716.13;4990640;28;20288;-86
2023/04/28 07:07:42;;;;;;;21.13;13.53;;;;;;;9.70;100.00;63723.50;4985340;28;20090;-85
2023/04/28 07:10:07;;;;;;;22.40;12.53;;;;;;;9.77;100.00;63731.00;4969914;28;20039;-84
2023/04/28 07:12:34;;;;;;;20.38;12.75;;;;;;;9.84;100.00;63737.31;4988661;28;20138;-84
2023/04/28 07:14:59;;;;;;;24.10;13.38;;;;;;;9.90;100.00;63743.53;4995090;28;20027;-84
2023/04/28 07:17:25;;;;;;;17.10;12.17;;;;;;;9.95;100.00;63748.84;4991906;28;20540;-83
2023/04/28 07:19:50;;;;;;;23.27;13.73;;;;;;;10.00;100.00;63754.34;4987817;28;20039;-84
2023/04/28 07:22:16;;;;;;;20.67;12.70;;;;;;;10.07;100.00;63761.59;4989167;28;20022;-84
2023/04/28 07:24:43;;;;;;;20.45;12.32;;;;;;;10.16;100.00;63769.56;4983664;28;20026;-85
2023/04/28 07:27:09;;;;;;;19.67;12.23;;;;;;;10.25;100.00;63778.38;4991408;28;20022;-82
2023/04/28 07:29:35;;;;;;;20.13;12.93;;;;;;;10.33;100.00;63786.78;4990941;28;20105;-86
2023/04/28 07:32:02;;;;;;;20.52;12.32;;;;;;;10.42;100.00;63795.34;4989199;28;20023;-85
2023/04/28 07:34:27;;;;;;;20.15;12.90;;;;;;;10.48;100.00;63802.00;4988535;28;20080;-84
2023/04/28 07:36:52;;;;;;;16.90;12.70;;;;;;;10.55;100.00;63808.56;4986219;28;20510;-84
2023/04/28 07:39:18;;;;;;;19.63;12.65;;;;;;;10.62;100.00;63815.88;4984002;28;20101;-84
2023/04/28 07:41:43;;;;;;;17.90;11.50;;;;;;;10.69;100.00;63823.38;4960339;28;20451;-85
2023/04/28 07:44:09;;;;;;;16.03;12.47;;;;;;;10.78;100.00;63831.50;4977009;28;20081;-85
2023/04/28 07:46:35;;;;;;;19.52;11.88;;;;;;;10.86;100.00;63839.75;4991342;28;20038;-85
2023/04/28 07:49:01;;;;;;;16.25;11.40;;;;;;;10.91;100.00;63845.56;4961137;28;20019;-84
2023/04/28 07:51:28;;;;;;;16.55;11.77;;;;;;;10.96;100.00;63850.56;4995900;28;20038;-84
2023/04/28 07:53:53;;;;;;;16.93;11.57;;;;;;;11.02;100.00;63856.03;4992910;28;20109;-85
2023/04/28 07:56:20;;;;;;;18.90;11.30;;;;;;;11.07;100.00;63860.88;4990227;28;20678;-84
2023/04/28 07:58:46;;;;;;;16.55;12.15;;;;;;;11.12;100.00;63865.78;4989158;28;20038;-83
2023/04/28 08:01:11;;;;;;;16.73;11.90;;;;;;;11.16;100.00;63870.03;4989629;28;20109;-84
2023/04/28 08:03:36;;;;;;;16.43;11.83;;;;;;;11.19;100.00;63873.44;4989756;28;20030;-85
2023/04/28 08:06:02;;;;;;;16.83;12.27;;;;;;;11.24;100.00;63878.09;4990796;28;20042;-84
2023/04/28 08:08:29;;;;;;;17.48;12.23;;;;;;;11.29;100.00;63883.44;4989115;28;20061;-84
2023/04/28 08:10:56;;;;;;;20.50;14.00;;;;;;;11.35;100.00;63888.50;4989365;28;20032;-85
2023/04/28 08:13:23;;;;;;;16.33;12.63;;;;;;;11.41;100.00;63894.25;4989937;28;20386;-85
2023/04/28 08:15:49;;;;;;;20.07;14.03;;;;;;;11.46;100.00;63899.66;4989381;28;20296;-85
2023/04/28 08:18:14;;;;;;;21.35;12.88;;;;;;;11.50;100.00;63904.06;4990364;28;20389;-85
2023/04/28 08:20:40;;;;;;;18.13;12.67;;;;;;;11.55;100.00;63908.97;4974277;28;20031;-85
2023/04/28 08:23:06;;;;;;;17.27;13.20;;;;;;;11.60;100.00;63913.69;4990431;28;20022;-85
2023/04/28 08:25:32;;;;;;;20.07;13.43;;;;;;;11.64;100.00;63918.53;4986623;28;20046;-85
2023/04/28 08:27:59;;;;;;;21.08;13.77;;;;;;;11.69;100.00;63923.19;4989570;28;20121;-82
2023/04/28 08:30:24;;;;;;;17.67;13.13;;;;;;;11.72;100.00;63927.03;4989231;28;20018;-83
2023/04/28 08:32:50;;;;;;;17.33;13.60;;;;;;;11.75;100.00;63930.19;4992883;28;20093;-85
2023/04/28 08:35:16;;;;;;;17.63;13.03;;;;;;;11.79;100.00;63934.00;4974134;28;20078;-83
2023/04/28 08:37:42;;;;;;;17.85;12.52;;;;;;;11.82;100.00;63937.66;4991178;28;20695;-84
2023/04/28 08:40:10;;;;;;;22.15;13.30;;;;;;;11.87;100.00;63942.00;4994888;28;20034;-84
2023/04/28 08:42:36;;;;;;;18.23;12.77;;;;;;;11.91;100.00;63946.41;4988925;28;20031;-85
2023/04/28 08:45:03;;;;;;;18.17;13.27;;;;;;;11.96;100.00;63951.06;4990508;28;20053;-84
2023/04/28 08:47:38;;;;;;;16.97;13.30;;;;;;;12.00;100.00;63956.25;4975791;28;20117;-84
2023/04/28 08:50:07;;;;;;;25.90;14.97;;;;;;;12.05;100.00;63961.31;4992436;28;20797;-86
2023/04/28 08:52:35;;;;;;;19.73;14.60;;;;;;;12.11;100.00;63966.75;4994163;28;20125;-85
2023/04/28 08:55:07;;;;;;;20.55;14.45;;;;;;;12.16;100.00;63971.81;4976647;28;20506;-86
2023/04/28 08:57:42;;;;;;;18.15;14.32;;;;;;;12.21;100.00;63976.81;4994093;28;20026;-85
2023/04/28 09:00:09;;;;;;;19.40;13.85;;;;;;;12.26;100.00;63982.63;4960384;28;20449;-85
2023/04/28 09:02:36;;;;;;;19.85;13.52;;;;;;;12.32;100.00;63987.97;4989490;28;20023;-83
2023/04/28 09:05:12;;;;;;;19.50;13.75;;;;;;;12.38;100.00;63994.22;4989323;28;20726;-83
2023/04/28 09:07:39;;;;;;;20.95;14.85;;;;;;;12.43;100.00;63999.22;4992622;28;20486;-83
2023/04/28 09:10:21;;;;;;;20.70;12.90;;;;;;;12.48;100.00;64004.19;4992723;28;20015;-84
2023/04/28 09:12:49;;;;;;;19.60;14.13;;;;;;;12.53;100.00;64009.03;4988839;28;20057;-84
2023/04/28 09:15:33;;;;;;;23.73;15.20;;;;;;;12.59;100.00;64015.03;4997054;28;20332;-84
2023/04/28 09:17:59;;;;;;;22.15;14.65;;;;;;;12.66;100.00;64022.28;4995648;28;20042;-85
2023/04/28 09:20:26;;;;;;;21.23;14.65;;;;;;;12.73;100.00;64029.84;4998004;28;20073;-85
2023/04/28 09:22:53;;;;;;;17.50;14.27;;;;;;;12.80;100.00;64037.25;4982843;28;20034;-85
2023/04/28 09:25:21;;;;;;;20.17;14.75;;;;;;;12.86;100.00;64043.44;5003099;28;20022;-85
2023/04/28 09:27:48;;;;;;;19.88;14.48;;;;;;;12.93;100.00;64050.84;5002700;28;20101;-86
2023/04/28 09:30:14;;;;;;;19.65;14.43;;;;;;;13.01;100.00;64058.34;4983399;28;20058;-85
2023/04/28 09:32:40;;;;;;;19.90;13.90;;;;;;;13.09;100.00;64066.34;4994746;28;20242;-85
2023/04/28 09:35:06;;;;;;;18.87;12.90;;;;;;;13.18;100.00;64075.34;4995214;28;20146;-85
2023/04/28 09:37:33;;;;;;;17.70;13.18;;;;;;;13.27;100.00;64084.59;4977457;28;20022;-85
2023/04/28 09:40:09;;;;;;;18.08;13.48;;;;;;;13.37;100.00;64094.59;4976611;28;20065;-86
2023/04/28 09:42:39;;;;;;;19.52;13.73;;;;;;;13.46;100.00;64104.19;4993538;28;20037;-86
2023/04/28 09:45:12;;;;;;;16.75;12.88;;;;;;;13.56;100.00;64113.44;4986881;28;20066;-85
2023/04/28 09:47:42;;;;;;;16.90;12.40;;;;;;;13.64;100.00;64122.00;4967373;28;20407;-84
2023/04/28 09:50:13;;;;;;;16.60;12.60;;;;;;;13.72;100.00;64129.19;4973838;28;20147;-84
2023/04/28 09:52:40;;;;;;;18.53;13.93;;;;;;;13.78;100.00;64135.69;4985674;28;20300;-85
2023/04/28 09:55:08;;;;;;;15.98;12.50;;;;;;;13.82;100.00;64140.59;4977167;28;20113;-85
2023/04/28 09:57:35;;;;;;;20.38;14.70;;;;;;;13.85;100.00;64143.84;4995128;28;20045;-85
2023/04/28 10:00:05;;;;;;;18.30;14.07;;;;;;;13.88;100.00;64146.19;4993703;28;20142;-85
2023/04/28 10:02:32;;;;;;;21.10;13.63;;;;;;;13.89;100.00;64147.44;4983833;28;20050;-84
2023/04/28 10:04:59;;;;;;;19.25;14.07;;;;;;;13.89;100.00;64147.53;4975093;28;20035;-85
2023/04/28 10:07:26;;;;;;;19.42;14.13;;;;;;;13.91;100.00;64148.84;4975235;28;20031;-85
2023/04/28 10:09:53;;;;;;;20.95;14.63;;;;;;;13.92;100.00;64150.59;4973783;28;20023;-85
2023/04/28 10:12:20;;;;;;;22.80;16.25;;;;;;;13.94;100.00;64152.44;4981738;28;20137;-84
2023/04/28 10:14:49;;;;;;;22.23;16.70;;;;;;;13.95;100.00;64153.75;4992810;28;20038;-84
2023/04/28 10:17:15;;;;;;;27.70;19.77;;;;;;;13.97;100.00;64155.69;4974213;28;20288;-84
2023/04/28 10:19:42;;;;;;;38.72;23.08;;;;;;;13.99;100.00;64157.59;4980472;28;20023;-84
2023/04/28 10:22:44;;;;;;;42.55;25.27;;;;;;;14.01;100.00;64160.03;4978475;28;20023;-84
2023/04/28 10:25:10;;;;;;;48.28;28.08;;;;;;;14.04;100.00;64162.84;4989285;28;20053;-84
2023/04/28 10:27:38;;;;;;;45.33;26.70;;;;;;;14.07;100.00;64166.03;4992211;28;20026;-84
2023/04/28 10:30:11;;;;;;;45.58;27.00;;;;;;;14.11;100.00;64170.19;4991430;28;20044;-83
2023/04/28 10:32:37;;;;;;;47.03;28.10;;;;;;;14.15;100.00;64174.34;4985129;28;20033;-83
2023/04/28 10:35:23;;;;;;;47.40;26.10;;;;;;;14.19;100.00;64178.78;4991897;28;20034;-82
2023/04/28 10:38:07;;;;;;;43.80;27.07;;;;;;;14.23;100.00;64182.69;4970680;28;20305;-83
2023/04/28 10:40:35;;;;;;;42.00;26.33;;;;;;;14.26;100.00;64185.44;4992077;28;20030;-83
2023/04/28 10:43:01;;;;;;;40.88;26.50;;;;;;;14.29;100.00;64188.44;4973593;28;20027;-84
2023/04/28 10:45:51;;;;;;;41.38;26.42;;;;;;;14.32;100.00;64191.78;4991892;28;20036;-85
2023/04/28 10:48:20;;;;;;;40.30;26.05;;;;;;;14.35;100.00;64194.72;4982814;28;20027;-84
2023/04/28 10:51:11;;;;;;;45.75;25.05;;;;;;;14.39;100.00;64199.13;4971989;28;20118;-82
2023/04/28 10:53:43;;;;;;;37.45;24.40;;;;;;;14.45;100.00;64205.38;4979567;28;20034;-85
2023/04/28 10:56:12;;;;;;;35.88;23.85;;;;;;;14.52;100.00;64212.03;4972387;28;20043;-82
2023/04/28 10:58:41;;;;;;;31.80;22.70;;;;;;;14.60;100.00;64220.16;4974360;28;20122;-86
2023/04/28 11:01:25;;;;;;;30.80;22.40;;;;;;;14.69;100.00;64228.56;4983550;28;20294;-86
2023/04/28 11:04:01;;;;;;;29.13;21.85;;;;;;;14.76;100.00;64236.41;4988703;28;20070;-86
2023/04/28 11:06:28;;;;;;;25.50;19.60;;;;;;;14.85;100.00;64244.75;4977706;28;20196;-88
2023/04/28 11:09:00;;;;;;;27.05;19.38;;;;;;;14.93;100.00;64252.59;4988156;28;20030;-86
2023/04/28 11:11:27;;;;;;;26.00;19.52;;;;;;;15.01;100.00;64261.53;4978645;28;20039;-85
2023/04/28 11:14:12;;;;;;;24.98;18.38;;;;;;;15.11;100.00;64271.63;4989606;28;20121;-85
2023/04/28 11:16:58;;;;;;;22.98;17.00;;;;;;;15.21;100.00;64282.28;4987776;28;20057;-83
2023/04/28 11:19:26;;;;;;;20.55;16.73;;;;;;;15.31;100.00;64291.72;4970786;28;20782;-84
2023/04/28 11:21:54;;;;;;;21.10;16.83;;;;;;;15.39;100.00;64299.56;4973722;28;20121;-84